Time;durP1;ratioP1;P1;durP2;ratioP2;P2;SDS_P1;SDS_P2;PMS_P1;PMS_P2;Temp;Humidity;BMP_temperature;BMP_pressure;BME280_temperature;BME280_humidity;BME280_pressure;Samples;Min_cycle;Max_cycle;Signal;HPM_P1;HPM_P2
2022/01/31 00:01:34;;;;;;;9.40;5.97;;;2.20;99.90;;;;;;5055371;28;20518;-65
2022/01/31 00:04:01;;;;;;;12.20;5.07;;;2.20;99.90;;;;;;5055005;28;20904;-63
2022/01/31 00:06:28;;;;;;;11.60;4.77;;;2.20;99.90;;;;;;5055050;28;20455;-64
2022/01/31 00:08:55;;;;;;;10.67;4.70;;;2.20;99.90;;;;;;5055438;28;20491;-64
2022/01/31 00:11:22;;;;;;;10.67;4.97;;;2.20;99.90;;;;;;5055136;28;20444;-64
2022/01/31 00:13:58;;;;;;;10.63;4.30;;;2.20;99.90;;;;;;5054604;28;20835;-64
2022/01/31 00:16:32;;;;;;;8.23;4.77;;;2.20;99.90;;;;;;5054543;28;20452;-66
2022/01/31 00:18:59;;;;;;;13.10;4.67;;;2.20;99.90;;;;;;5054276;28;20825;-63
2022/01/31 00:21:26;;;;;;;10.80;4.07;;;2.20;99.90;;;;;;5054116;28;20453;-64
2022/01/31 00:23:53;;;;;;;9.83;4.77;;;2.20;99.90;;;;;;5054168;28;20472;-64
2022/01/31 00:26:20;;;;;;;13.97;4.23;;;2.20;99.90;;;;;;5054298;28;20881;-65
2022/01/31 00:28:47;;;;;;;11.80;5.10;;;2.20;99.90;;;;;;5054567;28;20452;-64
2022/01/31 00:31:13;;;;;;;17.43;4.60;;;2.20;99.90;;;;;;5053943;28;20448;-64
2022/01/31 00:33:42;;;;;;;12.23;5.07;;;2.20;99.90;;;;;;5054099;28;21014;-64
2022/01/31 00:36:09;;;;;;;15.23;4.83;;;2.10;99.90;;;;;;5053947;28;20893;-64
2022/01/31 00:38:36;;;;;;;11.63;3.90;;;2.20;99.90;;;;;;5054083;28;20803;-64
2022/01/31 00:41:02;;;;;;;9.73;4.73;;;2.30;99.90;;;;;;5053206;28;20805;-64
2022/01/31 00:43:29;;;;;;;16.17;5.27;;;2.40;99.90;;;;;;5053379;28;20516;-64
2022/01/31 00:46:02;;;;;;;10.03;4.90;;;2.40;99.90;;;;;;5053659;28;20449;-63
2022/01/31 00:48:33;;;;;;;8.23;4.33;;;2.40;99.90;;;;;;5054425;28;20440;-63
2022/01/31 00:51:02;;;;;;;9.97;4.60;;;2.50;99.90;;;;;;5053948;28;20516;-63
2022/01/31 00:53:29;;;;;;;9.33;5.03;;;2.50;99.90;;;;;;5053427;28;20531;-64
2022/01/31 00:55:55;;;;;;;10.93;5.40;;;2.50;99.90;;;;;;5053137;28;20490;-64
2022/01/31 00:58:22;;;;;;;9.87;5.03;;;2.60;99.90;;;;;;5052573;28;20488;-63
2022/01/31 01:00:49;;;;;;;13.60;6.30;;;2.60;99.90;;;;;;5053383;28;20931;-64
2022/01/31 01:03:16;;;;;;;10.80;5.23;;;2.60;99.90;;;;;;5054184;28;20835;-64
2022/01/31 01:05:43;;;;;;;12.03;6.17;;;2.70;99.90;;;;;;5053664;28;20467;-64
2022/01/31 01:08:11;;;;;;;9.83;5.80;;;2.70;99.90;;;;;;5053646;28;20452;-63
2022/01/31 01:10:38;;;;;;;12.53;5.80;;;2.80;99.90;;;;;;5053241;28;20452;-63
2022/01/31 01:13:05;;;;;;;13.73;4.67;;;2.80;99.90;;;;;;5053429;28;20822;-66
2022/01/31 01:15:32;;;;;;;10.10;4.57;;;2.90;99.90;;;;;;5053981;28;20456;-63
2022/01/31 01:17:59;;;;;;;13.70;5.23;;;2.90;99.90;;;;;;5053986;28;20484;-63
2022/01/31 01:20:26;;;;;;;12.17;5.30;;;3.00;99.90;;;;;;5053687;28;20969;-63
2022/01/31 01:22:53;;;;;;;12.40;5.17;;;3.00;99.90;;;;;;5054262;28;20479;-63
2022/01/31 01:25:21;;;;;;;12.80;6.00;;;3.10;99.90;;;;;;5054220;28;20452;-63
2022/01/31 01:27:52;;;;;;;12.10;4.40;;;3.10;99.90;;;;;;5053905;28;20813;-64
2022/01/31 01:30:19;;;;;;;10.47;5.13;;;3.20;99.90;;;;;;5052211;28;20448;-64
2022/01/31 01:32:59;;;;;;;11.33;5.23;;;3.20;99.90;;;;;;5051675;28;20468;-63
2022/01/31 01:35:31;;;;;;;10.23;4.77;;;3.20;99.90;;;;;;5051992;28;20960;-64
2022/01/31 01:37:59;;;;;;;8.83;5.07;;;3.20;99.90;;;;;;5051155;28;20480;-64
2022/01/31 01:40:27;;;;;;;13.67;4.50;;;3.10;99.90;;;;;;5050918;28;20506;-64
2022/01/31 01:42:54;;;;;;;10.20;5.20;;;3.20;99.90;;;;;;5051093;28;20566;-64
2022/01/31 01:45:21;;;;;;;10.13;5.30;;;3.30;99.90;;;;;;5051231;28;20449;-64
2022/01/31 01:47:48;;;;;;;11.30;5.00;;;3.30;99.90;;;;;;5051339;28;20436;-63
2022/01/31 01:50:15;;;;;;;12.37;5.57;;;3.30;99.90;;;;;;5051307;28;20971;-64
2022/01/31 01:52:42;;;;;;;11.00;5.00;;;3.30;99.90;;;;;;5050188;28;20612;-64
2022/01/31 01:55:10;;;;;;;12.07;4.33;;;3.40;99.90;;;;;;5050788;28;20448;-64
2022/01/31 01:57:39;;;;;;;15.47;6.13;;;3.40;99.90;;;;;;5050794;28;20588;-63
2022/01/31 02:00:09;;;;;;;9.40;4.20;;;3.50;99.90;;;;;;5050242;28;20506;-64
2022/01/31 02:02:36;;;;;;;7.50;4.80;;;3.50;99.90;;;;;;5051208;28;20479;-64
2022/01/31 02:05:03;;;;;;;10.33;4.00;;;3.50;99.90;;;;;;5050938;28;20472;-63
2022/01/31 02:07:30;;;;;;;11.70;4.30;;;3.50;99.90;;;;;;5051460;28;20448;-64
2022/01/31 02:09:57;;;;;;;9.17;4.03;;;3.60;99.90;;;;;;5050714;28;20451;-63
2022/01/31 02:12:27;;;;;;;10.10;4.83;;;3.60;99.90;;;;;;5051768;28;20946;-64
2022/01/31 02:14:59;;;;;;;9.60;4.07;;;3.50;99.90;;;;;;5051000;28;20445;-63
2022/01/31 02:17:25;;;;;;;10.13;4.30;;;3.50;99.90;;;;;;5051366;28;20487;-63
2022/01/31 02:19:53;;;;;;;16.47;5.53;;;3.50;99.90;;;;;;5050525;28;20532;-63
2022/01/31 02:22:21;;;;;;;11.40;4.37;;;3.50;99.90;;;;;;5051035;28;20452;-63
2022/01/31 02:24:48;;;;;;;9.40;4.47;;;3.60;99.90;;;;;;5051181;28;21052;-63
2022/01/31 02:27:15;;;;;;;8.97;4.00;;;3.50;99.90;;;;;;5051168;28;20448;-64
2022/01/31 02:29:42;;;;;;;10.40;4.13;;;3.50;99.90;;;;;;5050663;28;20439;-63
2022/01/31 02:32:09;;;;;;;10.80;5.17;;;3.50;99.90;;;;;;5050629;28;20472;-64
2022/01/31 02:34:36;;;;;;;10.33;4.17;;;3.50;99.90;;;;;;5050877;28;20449;-64
2022/01/31 02:37:03;;;;;;;9.93;4.70;;;3.60;99.90;;;;;;5050689;28;20491;-63
2022/01/31 02:39:31;;;;;;;8.63;4.63;;;3.70;99.90;;;;;;5050613;28;20949;-63
2022/01/31 02:41:57;;;;;;;12.90;4.60;;;3.70;99.90;;;;;;5051182;28;20650;-63
2022/01/31 02:44:24;;;;;;;8.73;3.97;;;3.70;99.90;;;;;;5051291;28;20468;-63
2022/01/31 02:46:53;;;;;;;10.70;4.70;;;3.80;99.90;;;;;;5050954;28;20455;-63
2022/01/31 02:49:24;;;;;;;13.30;4.30;;;3.80;99.90;;;;;;5050768;28;20448;-63
2022/01/31 02:51:58;;;;;;;11.80;4.50;;;3.70;99.90;;;;;;5051396;28;20531;-63
2022/01/31 02:54:25;;;;;;;11.50;4.57;;;3.70;99.90;;;;;;5050980;28;20837;-64
2022/01/31 02:56:53;;;;;;;9.03;4.40;;;3.70;99.90;;;;;;5051364;28;20453;-64
2022/01/31 02:59:20;;;;;;;13.20;5.00;;;3.80;99.90;;;;;;5050331;28;20575;-63
2022/01/31 03:01:47;;;;;;;9.73;4.67;;;3.80;99.90;;;;;;5051533;28;20459;-64
2022/01/31 03:04:14;;;;;;;11.70;4.33;;;3.70;99.90;;;;;;5052077;28;20491;-64
2022/01/31 03:06:47;;;;;;;9.60;4.60;;;3.70;99.90;;;;;;5055944;28;20456;-64
2022/01/31 03:09:14;;;;;;;8.93;4.37;;;3.60;99.90;;;;;;5056225;28;20453;-64
2022/01/31 03:11:41;;;;;;;8.37;4.50;;;3.70;99.90;;;;;;5056144;28;20444;-63
2022/01/31 03:14:09;;;;;;;9.80;4.70;;;3.60;99.90;;;;;;5055662;28;20476;-64
2022/01/31 03:16:40;;;;;;;8.10;4.17;;;3.70;99.90;;;;;;5056238;28;20448;-64
2022/01/31 03:19:07;;;;;;;12.67;4.63;;;3.70;99.90;;;;;;5055644;28;20480;-63
2022/01/31 03:21:34;;;;;;;8.80;5.50;;;3.70;99.90;;;;;;5056537;28;20448;-64
2022/01/31 03:24:01;;;;;;;11.00;5.80;;;3.70;99.90;;;;;;5057585;28;20472;-64
2022/01/31 03:26:28;;;;;;;7.03;4.20;;;3.70;99.90;;;;;;5057801;28;20455;-65
2022/01/31 03:28:55;;;;;;;8.23;4.40;;;3.60;99.90;;;;;;5057324;28;20472;-64
2022/01/31 03:31:23;;;;;;;6.00;4.10;;;3.60;99.90;;;;;;5056736;28;20866;-63
2022/01/31 03:33:52;;;;;;;8.40;4.70;;;3.70;99.90;;;;;;5057255;28;20486;-63
2022/01/31 03:36:19;;;;;;;7.10;4.20;;;3.70;99.90;;;;;;5054430;28;20444;-64
2022/01/31 03:38:46;;;;;;;8.70;5.20;;;3.70;99.90;;;;;;5054179;28;20562;-63
2022/01/31 03:41:15;;;;;;;12.23;5.00;;;3.70;99.90;;;;;;5054183;28;20448;-62
2022/01/31 03:43:42;;;;;;;12.47;5.40;;;3.70;99.90;;;;;;5055590;28;20468;-63
2022/01/31 03:46:10;;;;;;;14.40;5.00;;;3.80;99.90;;;;;;5054786;28;20818;-63
2022/01/31 03:48:38;;;;;;;11.20;4.70;;;3.80;99.90;;;;;;5053992;28;20565;-63
2022/01/31 03:51:05;;;;;;;7.90;4.77;;;3.70;99.90;;;;;;5053129;28;20902;-64
2022/01/31 03:53:32;;;;;;;10.80;4.03;;;3.80;99.90;;;;;;5054004;28;20472;-63
2022/01/31 03:55:59;;;;;;;10.53;5.10;;;3.80;99.90;;;;;;5054195;28;20459;-63
2022/01/31 03:58:26;;;;;;;9.30;4.50;;;3.80;99.90;;;;;;5054024;28;20494;-64
2022/01/31 04:00:53;;;;;;;7.93;5.50;;;3.80;99.90;;;;;;5052940;28;20982;-64
2022/01/31 04:03:20;;;;;;;6.33;4.37;;;3.90;99.90;;;;;;5053994;28;20476;-64
2022/01/31 04:05:48;;;;;;;15.70;5.23;;;3.90;99.90;;;;;;5053785;28;20456;-64
2022/01/31 04:08:15;;;;;;;11.97;4.77;;;3.90;99.90;;;;;;5054283;28;20444;-64
2022/01/31 04:10:42;;;;;;;10.20;5.10;;;3.80;99.90;;;;;;5054701;28;20452;-65
2022/01/31 04:13:09;;;;;;;5.80;4.00;;;3.90;99.90;;;;;;5055687;28;20461;-64
2022/01/31 04:15:39;;;;;;;9.20;4.33;;;3.90;99.90;;;;;;5055270;28;20484;-64
2022/01/31 04:18:06;;;;;;;10.03;4.90;;;3.90;99.90;;;;;;5055024;28;20488;-66
2022/01/31 04:20:33;;;;;;;10.23;4.73;;;3.90;99.90;;;;;;5055037;28;20456;-65
2022/01/31 04:23:06;;;;;;;11.90;4.27;;;3.90;99.90;;;;;;5055000;28;20478;-63
2022/01/31 04:25:43;;;;;;;8.37;4.27;;;3.90;99.90;;;;;;5054626;28;20960;-64
2022/01/31 04:28:18;;;;;;;12.00;4.07;;;4.00;99.90;;;;;;5054834;28;21009;-65
2022/01/31 04:30:52;;;;;;;8.30;4.20;;;4.00;99.90;;;;;;5055137;28;20454;-64
2022/01/31 04:33:19;;;;;;;10.93;4.23;;;4.00;99.90;;;;;;5054634;28;20472;-63
2022/01/31 04:35:46;;;;;;;9.90;5.70;;;4.00;99.90;;;;;;5054927;28;20523;-63
2022/01/31 04:38:15;;;;;;;10.27;4.70;;;4.00;99.90;;;;;;5054144;28;20551;-63
2022/01/31 04:40:41;;;;;;;5.80;3.60;;;4.10;99.90;;;;;;5054370;28;20980;-63
2022/01/31 04:43:08;;;;;;;7.87;3.93;;;4.10;99.90;;;;;;5054529;28;20643;-64
2022/01/31 04:45:35;;;;;;;6.83;5.10;;;4.10;99.90;;;;;;5054197;28;20456;-63
2022/01/31 04:48:02;;;;;;;7.60;4.60;;;4.00;99.90;;;;;;5054053;28;20533;-64
2022/01/31 04:50:29;;;;;;;9.60;6.00;;;4.00;99.90;;;;;;5053686;28;20515;-65
2022/01/31 04:52:56;;;;;;;8.30;4.60;;;4.10;99.90;;;;;;5053699;28;20472;-64
2022/01/31 04:55:24;;;;;;;17.70;4.40;;;4.10;99.90;;;;;;5054158;28;20479;-64
2022/01/31 04:57:51;;;;;;;8.70;4.30;;;4.10;99.90;;;;;;5054606;28;20518;-62
2022/01/31 05:00:18;;;;;;;9.90;4.40;;;4.10;99.90;;;;;;5053317;28;20888;-64
2022/01/31 05:02:45;;;;;;;8.33;3.83;;;4.10;99.90;;;;;;5054250;28;20555;-64
2022/01/31 05:05:12;;;;;;;6.83;3.87;;;4.20;99.90;;;;;;5053415;28;20452;-65
2022/01/31 05:07:39;;;;;;;7.77;3.90;;;4.20;99.90;;;;;;5053822;28;20444;-65
2022/01/31 05:10:07;;;;;;;9.03;4.30;;;4.20;99.90;;;;;;5053130;28;20484;-64
2022/01/31 05:12:35;;;;;;;13.50;5.67;;;4.20;99.90;;;;;;5055489;28;20472;-64
2022/01/31 05:15:02;;;;;;;8.73;4.30;;;4.20;99.90;;;;;;5056990;28;20510;-63
2022/01/31 05:17:29;;;;;;;8.90;5.00;;;4.20;99.90;;;;;;5058151;28;20444;-65
2022/01/31 05:19:55;;;;;;;10.10;5.33;;;4.30;99.90;;;;;;5057134;28;20602;-63
2022/01/31 05:22:22;;;;;;;10.93;4.23;;;4.30;99.90;;;;;;5056255;28;20480;-63
2022/01/31 05:24:49;;;;;;;10.53;4.37;;;4.30;99.90;;;;;;5057074;28;20459;-65
2022/01/31 05:27:16;;;;;;;10.60;4.90;;;4.30;99.90;;;;;;5057044;28;20445;-64
2022/01/31 05:29:44;;;;;;;11.00;4.50;;;4.30;99.90;;;;;;5055896;28;20453;-65
2022/01/31 05:32:11;;;;;;;7.30;4.60;;;4.40;99.90;;;;;;5055593;28;20458;-64
2022/01/31 05:34:38;;;;;;;8.20;3.90;;;4.40;99.90;;;;;;5055795;28;20456;-63
2022/01/31 05:37:05;;;;;;;11.33;4.03;;;4.40;99.90;;;;;;5056175;28;20460;-63
2022/01/31 05:39:32;;;;;;;9.90;4.03;;;4.40;99.90;;;;;;5054157;28;20494;-65
2022/01/31 05:41:59;;;;;;;11.70;4.90;;;4.50;99.90;;;;;;5053571;28;20467;-65
2022/01/31 05:44:27;;;;;;;13.77;4.20;;;4.50;99.90;;;;;;5054348;28;20464;-66
2022/01/31 05:46:55;;;;;;;9.80;4.30;;;4.50;99.90;;;;;;5053122;28;20444;-65
2022/01/31 05:49:22;;;;;;;13.33;4.63;;;4.50;99.90;;;;;;5053560;28;20495;-65
2022/01/31 05:51:54;;;;;;;8.07;4.00;;;4.50;99.90;;;;;;5055213;28;20448;-62
2022/01/31 05:54:21;;;;;;;11.63;4.53;;;4.60;99.90;;;;;;5054502;28;20890;-64
2022/01/31 05:56:49;;;;;;;9.23;4.27;;;4.60;99.90;;;;;;5054939;28;20451;-63
2022/01/31 05:59:15;;;;;;;8.87;3.90;;;4.60;99.90;;;;;;5072925;28;20486;-64
2022/01/31 06:01:42;;;;;;;9.20;3.83;;;4.70;99.90;;;;;;5075519;28;20440;-62
2022/01/31 06:04:10;;;;;;;7.97;3.80;;;4.70;99.90;;;;;;5074473;28;20567;-59
2022/01/31 06:06:37;;;;;;;9.53;4.53;;;4.70;99.90;;;;;;5073618;28;20463;-63
2022/01/31 06:09:05;;;;;;;8.20;3.97;;;4.70;99.90;;;;;;5073104;28;20439;-65
2022/01/31 06:11:34;;;;;;;9.63;5.17;;;4.60;99.90;;;;;;5070621;28;20444;-65
2022/01/31 06:14:01;;;;;;;10.23;4.20;;;4.60;99.90;;;;;;5072765;28;20488;-66
2022/01/31 06:16:29;;;;;;;7.00;3.80;;;4.60;99.90;;;;;;5075171;28;20455;-65
2022/01/31 06:18:56;;;;;;;7.73;4.23;;;4.70;99.90;;;;;;5075079;28;20484;-64
2022/01/31 06:21:24;;;;;;;11.80;4.63;;;4.60;99.90;;;;;;5074862;28;20534;-63
2022/01/31 06:23:51;;;;;;;8.63;4.23;;;4.60;99.90;;;;;;5076563;28;20472;-63
2022/01/31 06:26:19;;;;;;;7.73;3.53;;;4.70;99.90;;;;;;5076833;28;20451;-64
2022/01/31 06:28:46;;;;;;;6.97;4.23;;;4.70;99.90;;;;;;5074737;28;20456;-63
2022/01/31 06:31:13;;;;;;;8.23;3.80;;;4.70;99.90;;;;;;5074167;28;20953;-63
2022/01/31 06:33:40;;;;;;;7.53;4.70;;;4.70;99.90;;;;;;5072381;28;21112;-63
2022/01/31 06:36:07;;;;;;;7.50;3.90;;;4.70;99.90;;;;;;5071517;28;20490;-66
2022/01/31 06:38:36;;;;;;;9.43;4.00;;;4.70;99.90;;;;;;5072540;28;20478;-63
2022/01/31 06:41:03;;;;;;;6.30;3.47;;;4.60;99.90;;;;;;5071093;28;20830;-63
2022/01/31 06:43:30;;;;;;;6.80;3.80;;;4.60;99.90;;;;;;5057413;28;20618;-67
2022/01/31 06:45:57;;;;;;;6.10;4.63;;;4.60;99.90;;;;;;5053332;28;20487;-64
2022/01/31 06:48:24;;;;;;;11.00;3.73;;;4.60;99.90;;;;;;5053407;28;20957;-63
2022/01/31 06:50:51;;;;;;;12.53;4.00;;;4.60;99.90;;;;;;5052840;28;20459;-63
2022/01/31 06:53:18;;;;;;;10.00;3.67;;;4.60;99.90;;;;;;5056070;28;20500;-64
2022/01/31 06:55:46;;;;;;;8.50;4.23;;;4.50;99.90;;;;;;5053658;28;20495;-64
2022/01/31 06:58:13;;;;;;;11.30;3.87;;;4.50;99.90;;;;;;5053683;28;20480;-64
2022/01/31 07:00:40;;;;;;;8.90;3.73;;;4.40;99.90;;;;;;5052790;28;20563;-64
2022/01/31 07:03:10;;;;;;;9.97;4.30;;;4.40;99.90;;;;;;5053099;28;20460;-64
2022/01/31 07:05:37;;;;;;;10.17;3.93;;;4.40;99.90;;;;;;5052931;28;21186;-65
2022/01/31 07:08:06;;;;;;;6.13;3.73;;;4.40;99.90;;;;;;5053505;28;20456;-64
2022/01/31 07:10:33;;;;;;;9.93;4.27;;;4.40;99.90;;;;;;5052868;28;20444;-65
2022/01/31 07:13:03;;;;;;;8.30;4.47;;;4.30;99.90;;;;;;5053084;28;20824;-64
2022/01/31 07:15:30;;;;;;;9.73;4.33;;;4.40;99.90;;;;;;5052695;28;20448;-65
2022/01/31 07:17:57;;;;;;;8.80;3.73;;;4.40;99.90;;;;;;5053386;28;20523;-65
2022/01/31 07:20:35;;;;;;;12.07;4.57;;;4.40;99.90;;;;;;5058240;28;20578;-63
2022/01/31 07:23:08;;;;;;;9.00;3.80;;;4.40;99.90;;;;;;5073060;28;20536;-64
2022/01/31 07:25:38;;;;;;;7.40;3.97;;;4.40;99.90;;;;;;5075066;28;20432;-62
2022/01/31 07:28:09;;;;;;;8.30;3.67;;;4.40;99.90;;;;;;5074263;28;20440;-63
2022/01/31 07:30:38;;;;;;;9.93;3.80;;;4.50;99.90;;;;;;5075416;28;20436;-64
2022/01/31 07:33:05;;;;;;;8.40;4.53;;;4.40;99.90;;;;;;5074839;28;20470;-63
2022/01/31 07:35:32;;;;;;;8.33;4.10;;;4.40;99.90;;;;;;5075998;28;20446;-63
2022/01/31 07:37:59;;;;;;;7.50;3.50;;;4.40;99.90;;;;;;5075591;28;20531;-63
2022/01/31 07:40:26;;;;;;;8.40;3.93;;;4.40;99.90;;;;;;5074876;28;20483;-63
2022/01/31 07:42:53;;;;;;;6.27;3.30;;;4.40;99.90;;;;;;5076184;28;20996;-63
2022/01/31 07:45:21;;;;;;;6.03;3.43;;;4.40;99.90;;;;;;5077689;28;20448;-63
2022/01/31 07:47:48;;;;;;;9.00;3.30;;;4.40;99.90;;;;;;5078255;28;20461;-64
2022/01/31 07:50:16;;;;;;;6.80;4.17;;;4.50;99.90;;;;;;5079417;28;20874;-64
2022/01/31 07:52:43;;;;;;;7.33;2.90;;;4.50;99.90;;;;;;5081743;28;20459;-63
2022/01/31 07:55:12;;;;;;;7.53;3.17;;;4.50;99.90;;;;;;5080708;28;20538;-62
2022/01/31 07:57:40;;;;;;;4.90;2.87;;;4.50;99.90;;;;;;5079091;28;20463;-63
2022/01/31 08:00:09;;;;;;;7.13;3.53;;;4.40;99.90;;;;;;5078709;28;20471;-64
2022/01/31 08:02:37;;;;;;;4.97;3.10;;;4.40;99.90;;;;;;5078864;28;20478;-64
2022/01/31 08:05:07;;;;;;;6.50;2.60;;;4.50;99.90;;;;;;5075186;28;20534;-63
2022/01/31 08:07:33;;;;;;;4.80;2.70;;;4.60;99.90;;;;;;5078499;28;20490;-65
2022/01/31 08:10:02;;;;;;;4.93;2.30;;;4.60;99.90;;;;;;5069146;28;20447;-62
2022/01/31 08:12:29;;;;;;;3.70;2.00;;;4.60;99.90;;;;;;5077394;28;20517;-63
2022/01/31 08:15:02;;;;;;;3.20;2.20;;;4.70;99.90;;;;;;5078816;28;20451;-62
2022/01/31 08:17:28;;;;;;;3.33;2.00;;;4.70;99.90;;;;;;5077902;28;20454;-62
2022/01/31 08:19:57;;;;;;;4.73;2.10;;;4.70;99.90;;;;;;5079079;28;20483;-63
2022/01/31 08:22:23;;;;;;;4.23;1.37;;;4.80;99.90;;;;;;5078889;28;20444;-63
2022/01/31 08:24:50;;;;;;;2.83;1.60;;;4.70;99.90;;;;;;5078628;28;20543;-62
2022/01/31 08:27:17;;;;;;;3.47;1.67;;;4.80;99.90;;;;;;5078469;28;20534;-62
2022/01/31 08:29:44;;;;;;;3.53;1.70;;;4.80;99.90;;;;;;5078229;28;20443;-63
2022/01/31 08:32:17;;;;;;;3.00;1.30;;;4.80;99.90;;;;;;5078867;28;20487;-63
2022/01/31 08:37:30;;;;;;;3.47;1.40;;;4.90;99.90;;;;;;5074883;28;20426;-63
2022/01/31 08:39:57;;;;;;;2.83;1.10;;;5.00;99.90;;;;;;5065398;28;20547;-63
2022/01/31 08:42:24;;;;;;;1.80;1.10;;;5.10;99.90;;;;;;5081803;28;20525;-63
2022/01/31 08:44:51;;;;;;;2.67;1.13;;;5.10;99.90;;;;;;5084095;28;20483;-63
2022/01/31 08:47:18;;;;;;;3.00;1.23;;;5.10;99.90;;;;;;5083742;28;20507;-64
2022/01/31 08:49:45;;;;;;;2.10;1.43;;;5.20;99.90;;;;;;5082378;28;20464;-65
2022/01/31 08:52:12;;;;;;;4.67;1.70;;;5.30;99.90;;;;;;5076938;28;20848;-63
2022/01/31 08:54:41;;;;;;;6.60;1.47;;;5.30;99.90;;;;;;5071052;28;20813;-64
2022/01/31 08:57:08;;;;;;;3.63;1.23;;;5.40;99.90;;;;;;5082636;28;20485;-64
2022/01/31 08:59:40;;;;;;;2.40;1.33;;;5.40;99.90;;;;;;5082693;28;21008;-63
2022/01/31 09:02:12;;;;;;;2.63;1.20;;;5.50;99.90;;;;;;5076522;28;20460;-64
2022/01/31 09:04:47;;;;;;;2.57;1.20;;;5.50;99.90;;;;;;5078112;28;20462;-64
2022/01/31 09:07:15;;;;;;;3.20;1.20;;;5.50;99.90;;;;;;5082716;28;20461;-63
2022/01/31 09:09:44;;;;;;;3.93;1.60;;;5.50;99.90;;;;;;5081786;28;20451;-63
2022/01/31 09:12:12;;;;;;;2.53;1.60;;;5.50;99.90;;;;;;5082367;28;20471;-64
2022/01/31 09:14:39;;;;;;;4.47;1.80;;;5.50;99.90;;;;;;5082573;28;20505;-64
2022/01/31 09:17:06;;;;;;;5.87;1.50;;;5.60;99.90;;;;;;5080730;28;20494;-64
2022/01/31 09:19:32;;;;;;;6.73;1.60;;;5.80;99.90;;;;;;5081778;28;20541;-64
2022/01/31 09:22:00;;;;;;;2.97;1.50;;;6.00;99.90;;;;;;5082132;28;20686;-64
2022/01/31 09:24:27;;;;;;;3.20;1.63;;;6.10;99.90;;;;;;5077378;28;20502;-64
2022/01/31 09:26:55;;;;;;;4.77;1.50;;;6.20;99.90;;;;;;5076305;28;20530;-63
2022/01/31 09:29:22;;;;;;;3.47;1.87;;;6.40;99.90;;;;;;5076705;28;20896;-63
2022/01/31 09:31:48;;;;;;;2.30;1.37;;;6.40;99.90;;;;;;5078061;28;20472;-63
2022/01/31 09:34:15;;;;;;;2.97;1.13;;;6.50;99.90;;;;;;5077087;28;20487;-64
2022/01/31 09:36:42;;;;;;;7.83;1.80;;;6.50;99.90;;;;;;5076508;28;20880;-64
2022/01/31 09:39:09;;;;;;;2.50;1.57;;;6.50;99.90;;;;;;5077536;28;20471;-63
2022/01/31 09:41:38;;;;;;;3.93;1.40;;;6.60;99.90;;;;;;5077361;28;20521;-64
2022/01/31 09:44:17;;;;;;;2.47;1.40;;;6.70;99.90;;;;;;5076807;28;20467;-64
2022/01/31 09:47:04;;;;;;;2.93;1.40;;;6.80;99.90;;;;;;5075853;28;20554;-63
2022/01/31 09:49:32;;;;;;;2.60;1.60;;;6.80;99.90;;;;;;5074603;28;20853;-64
2022/01/31 09:51:59;;;;;;;2.57;1.87;;;6.80;99.90;;;;;;5074312;28;20474;-64
2022/01/31 09:54:27;;;;;;;2.80;1.43;;;6.70;99.90;;;;;;5074561;28;20468;-64
2022/01/31 09:56:55;;;;;;;4.10;1.60;;;6.60;99.90;;;;;;5074024;28;20652;-64
2022/01/31 09:59:23;;;;;;;6.80;1.80;;;6.40;99.90;;;;;;5074582;28;20450;-65
2022/01/31 10:01:54;;;;;;;6.10;2.00;;;6.30;99.90;;;;;;5074745;28;20446;-63
2022/01/31 10:04:23;;;;;;;3.93;1.90;;;6.30;99.90;;;;;;5073933;28;20514;-64
2022/01/31 10:06:52;;;;;;;3.23;1.80;;;6.30;99.90;;;;;;5074292;28;20913;-64
2022/01/31 10:09:21;;;;;;;3.00;1.70;;;6.30;99.90;;;;;;5073497;28;20531;-64
2022/01/31 10:11:50;;;;;;;2.40;1.60;;;6.30;99.90;;;;;;5074847;28;20451;-64
2022/01/31 10:17:11;;;;;;;2.87;1.93;;;6.40;99.90;;;;;;5079069;28;20423;-65
2022/01/31 10:19:43;;;;;;;5.60;2.27;;;6.40;99.90;;;;;;5078493;28;20482;-62
2022/01/31 10:22:11;;;;;;;4.23;2.07;;;6.40;99.90;;;;;;5075522;28;20460;-63
2022/01/31 10:24:41;;;;;;;3.10;1.87;;;6.40;99.90;;;;;;5074244;28;20487;-64
2022/01/31 10:27:14;;;;;;;2.77;1.87;;;6.40;99.90;;;;;;5075067;28;20474;-64
2022/01/31 10:29:43;;;;;;;4.43;2.20;;;6.40;99.90;;;;;;5066907;28;20491;-64
2022/01/31 10:32:12;;;;;;;4.93;2.40;;;6.50;99.90;;;;;;5059699;28;20444;-63
2022/01/31 10:34:41;;;;;;;5.37;2.27;;;6.40;99.90;;;;;;5060559;28;20498;-64
2022/01/31 10:37:11;;;;;;;5.70;2.27;;;6.40;99.90;;;;;;5058889;28;20456;-63
2022/01/31 10:45:53;;;;;;;3.90;1.73;;;6.40;99.90;;;;;;5060154;28;20443;-64
2022/01/31 10:54:00;;;;;;;2.77;1.67;;;6.40;99.90;;;;;;5060135;28;20459;-64
2022/01/31 10:56:39;;;;;;;2.70;1.63;;;6.50;99.90;;;;;;5060805;28;20962;-61
2022/01/31 10:59:08;;;;;;;4.30;2.27;;;6.50;99.90;;;;;;5059831;28;20456;-63
2022/01/31 11:01:38;;;;;;;4.80;2.27;;;6.50;99.90;;;;;;5060092;28;20480;-63
2022/01/31 11:04:07;;;;;;;3.80;1.80;;;6.40;99.90;;;;;;5060576;28;20483;-63
2022/01/31 11:06:34;;;;;;;5.27;1.90;;;6.50;99.90;;;;;;5059529;28;20546;-63
2022/01/31 11:09:07;;;;;;;4.40;1.93;;;6.50;99.90;;;;;;5060764;28;20448;-64
2022/01/31 11:11:35;;;;;;;4.13;2.07;;;6.60;99.90;;;;;;5059943;28;20452;-63
2022/01/31 11:14:03;;;;;;;5.53;1.87;;;6.70;99.90;;;;;;5059105;28;20479;-63
2022/01/31 11:16:30;;;;;;;4.10;1.67;;;6.70;99.90;;;;;;5059622;28;20452;-63
2022/01/31 11:19:03;;;;;;;4.30;1.97;;;6.70;99.90;;;;;;5060216;28;20524;-63
2022/01/31 11:21:33;;;;;;;3.80;1.40;;;6.70;99.90;;;;;;5059592;28;20476;-63
2022/01/31 11:24:03;;;;;;;2.50;1.40;;;6.80;99.90;;;;;;5060678;28;20487;-63
2022/01/31 11:26:37;;;;;;;2.70;1.50;;;6.80;99.90;;;;;;5080410;28;20447;-63
2022/01/31 11:29:07;;;;;;;3.43;1.50;;;6.80;99.90;;;;;;5085069;28;20447;-63
2022/01/31 11:31:36;;;;;;;4.13;1.87;;;6.80;99.90;;;;;;5084739;28;20470;-63
2022/01/31 11:34:05;;;;;;;3.87;1.43;;;6.90;99.90;;;;;;5086517;28;20491;-63
2022/01/31 11:36:34;;;;;;;3.13;1.10;;;6.80;99.90;;;;;;5085670;28;20496;-63
2022/01/31 11:39:05;;;;;;;6.60;1.60;;;6.70;99.90;;;;;;5085811;28;20447;-64
2022/01/31 11:41:33;;;;;;;4.10;1.83;;;6.70;99.90;;;;;;5085730;28;21035;-63
2022/01/31 11:44:14;;;;;;;3.03;1.60;;;6.60;99.90;;;;;;5085591;28;20486;-63
2022/01/31 11:46:41;;;;;;;4.40;1.50;;;6.60;99.90;;;;;;5081541;28;20447;-63
2022/01/31 11:49:13;;;;;;;5.63;1.77;;;6.50;99.90;;;;;;5079774;28;20557;-62
2022/01/31 11:52:06;;;;;;;2.40;1.60;;;6.40;99.90;;;;;;5079000;28;21145;-62
2022/01/31 11:54:37;;;;;;;3.10;1.77;;;6.20;99.90;;;;;;5078437;28;20475;-64
2022/01/31 11:57:14;;;;;;;5.90;1.73;;;6.00;99.90;;;;;;5080727;28;20501;-62
2022/01/31 11:59:41;;;;;;;3.70;1.67;;;5.90;99.90;;;;;;5081723;28;20458;-63
2022/01/31 12:02:08;;;;;;;2.53;1.27;;;5.90;99.90;;;;;;5081249;28;20483;-64
2022/01/31 12:04:36;;;;;;;3.27;1.60;;;5.90;99.90;;;;;;5080693;28;20458;-62
2022/01/31 12:07:30;;;;;;;3.77;1.37;;;5.90;99.90;;;;;;5079567;28;20822;-62
2022/01/31 12:10:00;;;;;;;8.10;1.70;;;6.00;99.90;;;;;;5078738;28;20447;-64
2022/01/31 12:12:37;;;;;;;4.83;1.47;;;6.00;99.90;;;;;;5079423;28;20451;-63
2022/01/31 12:15:35;;;;;;;3.40;1.70;;;6.00;99.90;;;;;;5078667;28;20470;-63
2022/01/31 12:18:36;;;;;;;4.40;1.20;;;6.10;99.90;;;;;;5076786;28;20519;-63
2022/01/31 12:23:57;;;;;;;4.30;1.63;;;6.00;99.90;;;;;;5053382;28;20457;-63
2022/01/31 12:26:54;;;;;;;7.47;1.73;;;6.00;99.90;;;;;;5063345;28;20450;-63
2022/01/31 12:29:23;;;;;;;3.50;1.43;;;6.10;99.90;;;;;;5076613;28;20995;-64
2022/01/31 12:31:51;;;;;;;5.00;1.40;;;6.10;99.90;;;;;;5079830;28;20444;-64
2022/01/31 12:34:39;;;;;;;4.40;1.40;;;6.10;99.90;;;;;;5078205;28;20838;-63
2022/01/31 12:37:22;;;;;;;2.73;1.20;;;6.10;99.90;;;;;;5076687;28;20447;-63
2022/01/31 12:39:59;;;;;;;3.80;1.70;;;6.00;99.90;;;;;;5075306;28;20466;-63
2022/01/31 12:46:12;;;;;;;6.73;2.23;;;5.90;99.90;;;;;;5066387;28;20424;-64
2022/01/31 12:48:38;;;;;;;4.73;1.70;;;5.80;99.90;;;;;;5036195;28;20470;-64
2022/01/31 12:51:13;;;;;;;6.67;1.63;;;5.70;99.90;;;;;;5058544;28;20520;-63
2022/01/31 12:53:50;;;;;;;4.97;1.83;;;5.70;99.90;;;;;;5058508;28;20515;-63
2022/01/31 12:56:24;;;;;;;3.23;1.50;;;5.70;99.90;;;;;;5069600;28;20443;-63
2022/01/31 12:58:56;;;;;;;2.20;1.40;;;5.70;99.90;;;;;;5076412;28;20485;-62
2022/01/31 13:01:25;;;;;;;5.30;1.97;;;5.70;99.90;;;;;;5078045;28;20477;-64
2022/01/31 13:03:55;;;;;;;5.37;1.70;;;5.70;99.90;;;;;;5079666;28;20543;-63
2022/01/31 13:06:27;;;;;;;4.87;1.83;;;5.70;99.90;;;;;;5076575;28;21115;-63
2022/01/31 13:08:56;;;;;;;3.17;1.70;;;5.70;99.90;;;;;;5080447;28;20450;-63
2022/01/31 13:11:23;;;;;;;3.70;1.90;;;5.70;99.90;;;;;;5091733;28;20539;-63
2022/01/31 13:13:50;;;;;;;2.67;1.23;;;5.70;99.90;;;;;;5078723;28;20558;-62
2022/01/31 13:16:17;;;;;;;4.50;2.67;;;5.60;99.90;;;;;;5078336;28;20442;-64
2022/01/31 13:18:45;;;;;;;3.83;1.70;;;5.60;99.90;;;;;;5077289;28;20448;-60
2022/01/31 13:21:13;;;;;;;2.87;1.47;;;5.60;99.90;;;;;;5077843;28;20705;-62
2022/01/31 13:23:43;;;;;;;3.30;1.60;;;5.50;99.90;;;;;;5077305;28;20476;-63
2022/01/31 13:26:12;;;;;;;3.10;1.33;;;5.50;99.90;;;;;;5078960;28;20817;-64